createdAt,value
2022-12-31T00:00:53.733Z,10.32
2022-12-31T00:01:54.297Z,10.32
2022-12-31T00:02:53.729Z,10.27
2022-12-31T00:03:53.751Z,10.29
2022-12-31T00:04:53.621Z,10.38
2022-12-31T00:05:53.701Z,10.34
2022-12-31T00:06:53.633Z,10.34
2022-12-31T00:07:54.449Z,10.30
2022-12-31T00:08:54.738Z,10.38
2022-12-31T00:09:53.751Z,10.33
2022-12-31T00:10:53.617Z,10.40
2022-12-31T00:11:53.605Z,10.29
2022-12-31T00:12:53.735Z,10.33
2022-12-31T00:13:53.601Z,10.27
2022-12-31T00:14:53.594Z,10.36
2022-12-31T00:15:53.636Z,10.29
2022-12-31T00:16:56.257Z,10.42
2022-12-31T00:17:53.589Z,10.41
2022-12-31T00:18:53.584Z,10.38
2022-12-31T00:19:54.258Z,10.41
2022-12-31T00:20:53.598Z,10.47
2022-12-31T00:21:53.651Z,10.42
2022-12-31T00:22:53.586Z,10.36
2022-12-31T00:23:53.707Z,10.51
2022-12-31T00:24:53.697Z,10.51
2022-12-31T00:25:53.614Z,10.48
2022-12-31T00:26:53.675Z,10.51
2022-12-31T00:27:54.232Z,10.41
2022-12-31T00:28:53.674Z,10.41
2022-12-31T00:29:53.579Z,10.34
2022-12-31T00:30:54.262Z,10.45
2022-12-31T00:31:53.583Z,10.42
2022-12-31T00:32:53.600Z,10.40
2022-12-31T00:33:53.599Z,10.45
2022-12-31T00:34:53.548Z,10.47
2022-12-31T00:35:53.582Z,10.45
2022-12-31T00:36:53.600Z,10.48
2022-12-31T00:37:53.539Z,10.45
2022-12-31T00:38:53.557Z,10.48
2022-12-31T00:39:53.604Z,10.51
2022-12-31T00:40:53.542Z,10.48
2022-12-31T00:41:53.542Z,10.52
2022-12-31T00:42:54.236Z,10.51
2022-12-31T00:43:53.547Z,10.53
2022-12-31T00:44:54.932Z,10.55
2022-12-31T00:45:53.664Z,10.59
2022-12-31T00:46:53.554Z,10.53
2022-12-31T00:47:54.241Z,10.59
2022-12-31T00:48:54.931Z,10.53
2022-12-31T00:49:53.695Z,10.53
2022-12-31T00:50:53.625Z,10.53
2022-12-31T00:51:53.515Z,10.53
2022-12-31T00:52:53.756Z,10.52
2022-12-31T00:53:53.528Z,10.55
2022-12-31T00:54:53.567Z,10.63
2022-12-31T00:55:53.520Z,10.60
2022-12-31T00:56:53.519Z,10.61
2022-12-31T00:57:53.556Z,10.66
2022-12-31T00:58:53.533Z,10.60
2022-12-31T00:59:53.502Z,10.73
2022-12-31T01:00:53.489Z,10.70
2022-12-31T01:01:53.595Z,10.68
2022-12-31T01:02:53.509Z,10.71
2022-12-31T01:03:53.502Z,10.67
2022-12-31T01:04:53.510Z,10.74
2022-12-31T01:05:53.488Z,10.68
2022-12-31T01:06:53.525Z,10.81
2022-12-31T01:07:53.495Z,10.79
2022-12-31T01:08:53.522Z,10.85
2022-12-31T01:09:53.608Z,10.79
2022-12-31T01:10:53.466Z,10.78
2022-12-31T01:11:53.474Z,10.79
2022-12-31T01:12:53.464Z,10.78
2022-12-31T01:13:53.467Z,10.82
2022-12-31T01:14:53.581Z,10.81
2022-12-31T01:15:53.537Z,10.97
2022-12-31T01:16:53.545Z,10.92
2022-12-31T01:17:53.565Z,10.92
2022-12-31T01:18:53.474Z,10.96
2022-12-31T01:19:53.548Z,10.99
2022-12-31T01:20:53.484Z,11.11
2022-12-31T01:21:53.477Z,11.09
2022-12-31T01:22:53.445Z,11.06
2022-12-31T01:23:54.249Z,11.06
2022-12-31T01:24:53.465Z,11.09
2022-12-31T01:25:53.451Z,11.14
2022-12-31T01:26:53.466Z,11.17
2022-12-31T01:27:53.433Z,11.21
2022-12-31T01:28:53.443Z,11.19
2022-12-31T01:29:53.475Z,11.39
2022-12-31T01:30:53.475Z,11.33
2022-12-31T01:31:53.425Z,11.28
2022-12-31T01:32:53.469Z,11.36
2022-12-31T01:33:53.424Z,11.37
2022-12-31T01:34:53.443Z,11.43
2022-12-31T01:35:53.423Z,11.40
2022-12-31T01:36:53.440Z,11.44
2022-12-31T01:37:53.431Z,11.47
2022-12-31T01:38:53.551Z,11.44
2022-12-31T01:39:53.429Z,11.44
2022-12-31T01:40:53.418Z,11.49
2022-12-31T01:41:53.440Z,11.51
2022-12-31T01:42:53.428Z,11.55
2022-12-31T01:43:53.438Z,11.47
2022-12-31T01:44:53.405Z,11.51
2022-12-31T01:45:53.472Z,11.67
2022-12-31T01:46:55.458Z,11.75
2022-12-31T01:47:54.523Z,11.75
2022-12-31T01:48:53.405Z,11.79
2022-12-31T01:49:53.393Z,11.62
2022-12-31T01:50:53.410Z,11.72
2022-12-31T01:51:53.426Z,11.78
2022-12-31T01:52:53.398Z,11.73
2022-12-31T01:53:53.397Z,11.80
2022-12-31T01:54:53.449Z,11.76
2022-12-31T01:55:53.391Z,11.86
2022-12-31T01:56:53.395Z,11.79
2022-12-31T01:57:53.418Z,11.90
2022-12-31T01:58:53.456Z,11.90
2022-12-31T01:59:53.983Z,11.86
2022-12-31T02:00:53.400Z,11.85
2022-12-31T02:01:53.476Z,11.98
2022-12-31T02:02:53.508Z,11.90
2022-12-31T02:03:53.379Z,11.94
2022-12-31T02:04:53.387Z,11.83
2022-12-31T02:05:53.389Z,11.90
2022-12-31T02:06:53.360Z,11.88
2022-12-31T02:07:53.374Z,11.95
2022-12-31T02:08:53.364Z,11.86
2022-12-31T02:09:53.384Z,11.83
2022-12-31T02:10:53.415Z,11.86
2022-12-31T02:11:53.378Z,11.88
2022-12-31T02:12:53.364Z,11.95
2022-12-31T02:13:58.132Z,11.90
2022-12-31T02:14:53.357Z,11.86
2022-12-31T02:15:53.478Z,11.88
2022-12-31T02:16:53.380Z,11.90
2022-12-31T02:17:53.367Z,11.83
2022-12-31T02:18:53.338Z,11.90
2022-12-31T02:19:53.342Z,11.88
2022-12-31T02:20:53.350Z,11.88
2022-12-31T02:21:53.339Z,11.96
2022-12-31T02:22:53.345Z,11.86
2022-12-31T02:23:53.339Z,11.88
2022-12-31T02:24:53.350Z,11.80
2022-12-31T02:25:53.387Z,11.86
2022-12-31T02:26:53.335Z,12.01
2022-12-31T02:27:53.363Z,11.83
2022-12-31T02:28:53.342Z,11.91
2022-12-31T02:29:53.344Z,11.94
2022-12-31T02:30:53.388Z,11.86
2022-12-31T02:31:53.321Z,11.95
2022-12-31T02:32:53.391Z,12.01
2022-12-31T02:33:53.339Z,11.86
2022-12-31T02:34:53.332Z,12.02
2022-12-31T02:35:53.337Z,11.98
2022-12-31T02:36:53.318Z,12.02
2022-12-31T02:37:53.334Z,11.96
2022-12-31T02:38:53.312Z,11.96
2022-12-31T02:39:53.319Z,12.04
2022-12-31T02:40:54.514Z,11.90
2022-12-31T02:41:53.359Z,11.99
2022-12-31T02:42:55.510Z,11.98
2022-12-31T02:43:54.278Z,12.07
2022-12-31T02:44:54.786Z,11.86
2022-12-31T02:45:55.782Z,11.90
2022-12-31T02:48:47.914Z,11.90
2022-12-31T02:49:47.595Z,11.75
2022-12-31T02:50:52.279Z,11.65
2022-12-31T02:51:47.411Z,11.64
2022-12-31T02:52:47.382Z,11.61
2022-12-31T02:53:47.386Z,11.46
2022-12-31T02:54:47.385Z,11.39
2022-12-31T02:55:47.364Z,11.36
2022-12-31T02:56:47.345Z,11.40
2022-12-31T02:57:47.349Z,11.35
2022-12-31T02:58:47.365Z,11.37
2022-12-31T02:59:47.382Z,11.33
2022-12-31T03:00:47.395Z,11.27
2022-12-31T03:01:47.457Z,11.35
2022-12-31T03:02:47.500Z,11.25
2022-12-31T03:03:47.342Z,11.25
2022-12-31T03:04:47.360Z,11.24
2022-12-31T03:05:47.358Z,11.32
2022-12-31T03:06:47.338Z,11.36
2022-12-31T03:07:47.336Z,11.28
2022-12-31T03:08:47.321Z,11.35
2022-12-31T03:09:47.329Z,11.32
2022-12-31T03:10:47.348Z,11.39
2022-12-31T03:11:47.324Z,11.32
2022-12-31T03:12:47.592Z,11.36
2022-12-31T03:13:47.334Z,11.33
2022-12-31T03:14:47.328Z,11.35
2022-12-31T03:15:47.410Z,11.40
2022-12-31T03:16:47.323Z,11.39
2022-12-31T03:17:47.316Z,11.43
2022-12-31T03:18:47.381Z,11.42
2022-12-31T03:19:47.304Z,11.46
2022-12-31T03:20:47.337Z,11.40
2022-12-31T03:21:47.346Z,11.37
2022-12-31T03:22:47.300Z,11.44
2022-12-31T03:23:47.312Z,11.43
2022-12-31T03:24:47.303Z,11.44
2022-12-31T03:25:48.021Z,11.43
2022-12-31T03:26:47.332Z,11.47
2022-12-31T03:27:47.301Z,11.44
2022-12-31T03:28:47.310Z,11.52
2022-12-31T03:29:47.348Z,11.51
2022-12-31T03:30:47.291Z,11.54
2022-12-31T03:31:47.329Z,11.57
2022-12-31T03:32:47.284Z,11.64
2022-12-31T03:33:47.358Z,11.60
2022-12-31T03:34:47.291Z,11.70
2022-12-31T03:35:47.321Z,11.69
2022-12-31T03:36:47.284Z,11.69
2022-12-31T03:37:47.286Z,11.69
2022-12-31T03:38:51.213Z,11.76
2022-12-31T03:39:47.302Z,11.86
2022-12-31T03:40:47.272Z,11.90
2022-12-31T03:41:47.272Z,11.90
2022-12-31T03:42:47.278Z,11.96
2022-12-31T03:43:47.261Z,11.95
2022-12-31T03:44:47.274Z,12.01
2022-12-31T03:45:47.296Z,12.02
2022-12-31T03:46:47.273Z,12.02
2022-12-31T03:47:47.285Z,11.96
2022-12-31T03:48:47.261Z,11.98
2022-12-31T03:49:47.258Z,12.05
2022-12-31T03:50:47.270Z,11.98
2022-12-31T03:51:47.256Z,12.04
2022-12-31T03:52:47.271Z,12.04
2022-12-31T03:53:47.274Z,12.07
2022-12-31T03:54:47.310Z,12.05
2022-12-31T03:55:47.263Z,12.07
2022-12-31T03:56:49.516Z,12.17
2022-12-31T03:57:47.249Z,12.14
2022-12-31T03:58:47.233Z,12.17
2022-12-31T03:59:47.247Z,12.19
2022-12-31T04:00:47.289Z,12.23
2022-12-31T04:01:47.339Z,12.28
2022-12-31T04:02:47.311Z,12.21
2022-12-31T04:03:47.239Z,12.19
2022-12-31T04:04:47.237Z,12.17
2022-12-31T04:05:47.246Z,12.20
2022-12-31T04:06:47.259Z,12.27
2022-12-31T04:07:47.229Z,12.23
2022-12-31T04:08:47.228Z,12.23
2022-12-31T04:09:47.219Z,12.29
2022-12-31T04:10:47.207Z,12.19
2022-12-31T04:11:47.248Z,12.28
2022-12-31T04:12:47.237Z,12.23
2022-12-31T04:13:47.231Z,12.19
2022-12-31T04:14:47.227Z,12.27
2022-12-31T04:15:47.210Z,12.23
2022-12-31T04:16:47.261Z,12.23
2022-12-31T04:17:47.242Z,12.32
2022-12-31T04:18:47.236Z,12.28
2022-12-31T04:19:47.208Z,12.34
2022-12-31T04:20:47.251Z,12.41
2022-12-31T04:21:47.228Z,12.42
2022-12-31T04:22:47.225Z,12.38
2022-12-31T04:23:47.220Z,12.47
2022-12-31T04:24:47.206Z,12.42
2022-12-31T04:25:47.209Z,12.47
2022-12-31T04:26:47.197Z,12.49
2022-12-31T04:27:47.195Z,12.41
2022-12-31T04:28:47.207Z,12.50
2022-12-31T04:29:47.196Z,12.49
2022-12-31T04:30:47.189Z,12.56
2022-12-31T04:31:47.213Z,12.60
2022-12-31T04:32:47.213Z,12.46
2022-12-31T04:33:47.230Z,12.49
2022-12-31T04:34:47.223Z,12.59
2022-12-31T04:35:47.194Z,12.54
2022-12-31T04:36:47.197Z,12.65
2022-12-31T04:37:47.177Z,12.62
2022-12-31T04:38:47.207Z,12.56
2022-12-31T04:39:47.205Z,12.62
2022-12-31T04:40:47.188Z,12.56
2022-12-31T04:41:47.202Z,12.64
2022-12-31T04:42:47.167Z,12.54
2022-12-31T04:43:47.204Z,12.57
2022-12-31T04:44:47.166Z,12.54
2022-12-31T04:45:47.258Z,12.60
2022-12-31T04:46:47.185Z,12.62
2022-12-31T04:47:47.205Z,12.59
2022-12-31T04:48:47.205Z,12.65
2022-12-31T04:49:47.203Z,12.62
2022-12-31T04:50:47.158Z,12.54
2022-12-31T04:51:48.954Z,12.56
2022-12-31T04:52:47.174Z,12.62
2022-12-31T04:53:47.178Z,12.65
2022-12-31T04:54:47.213Z,12.60
2022-12-31T04:55:47.153Z,12.67
2022-12-31T04:56:47.180Z,12.65
2022-12-31T04:57:47.147Z,12.68
2022-12-31T04:58:47.160Z,12.60
2022-12-31T04:59:47.172Z,12.70
2022-12-31T05:00:47.184Z,12.59
2022-12-31T05:01:47.261Z,12.54
2022-12-31T05:02:47.398Z,12.54
2022-12-31T05:03:47.138Z,12.54
2022-12-31T05:04:47.135Z,12.64
2022-12-31T05:05:47.144Z,12.64
2022-12-31T05:06:47.151Z,12.70
2022-12-31T05:07:47.139Z,12.77
2022-12-31T05:08:47.156Z,12.72
2022-12-31T05:09:47.147Z,12.79
2022-12-31T05:10:47.131Z,12.79
2022-12-31T05:11:47.153Z,12.75
2022-12-31T05:12:47.121Z,12.83
2022-12-31T05:13:55.572Z,12.79
2022-12-31T05:14:47.133Z,12.79
2022-12-31T05:15:47.140Z,12.90
2022-12-31T05:16:47.185Z,12.89
2022-12-31T05:17:47.117Z,12.92
2022-12-31T05:18:47.128Z,12.93
2022-12-31T05:19:47.134Z,12.93
2022-12-31T05:20:47.109Z,12.97
2022-12-31T05:21:47.117Z,13.00
2022-12-31T05:22:47.114Z,13.01
2022-12-31T05:23:47.112Z,12.97
2022-12-31T05:24:47.113Z,13.07
2022-12-31T05:25:47.117Z,13.00
2022-12-31T05:26:47.100Z,13.05
2022-12-31T05:27:47.103Z,13.07
2022-12-31T05:28:47.095Z,13.00
2022-12-31T05:29:47.097Z,12.92
2022-12-31T05:30:47.135Z,13.00
2022-12-31T05:31:47.099Z,12.85
2022-12-31T05:32:47.100Z,12.83
2022-12-31T05:33:47.098Z,12.82
2022-12-31T05:34:47.112Z,12.75
2022-12-31T05:35:47.086Z,12.83
2022-12-31T05:36:47.093Z,12.77
2022-12-31T05:37:47.091Z,12.75
2022-12-31T05:38:47.086Z,12.78
2022-12-31T05:39:47.088Z,12.71
2022-12-31T05:40:47.091Z,12.75
2022-12-31T05:41:47.101Z,12.78
2022-12-31T05:42:47.081Z,12.72
2022-12-31T05:43:47.086Z,12.74
2022-12-31T05:44:47.068Z,12.74
2022-12-31T05:45:47.089Z,12.75
2022-12-31T05:46:47.078Z,12.64
2022-12-31T05:47:47.069Z,12.67
2022-12-31T05:48:47.078Z,12.57
2022-12-31T05:49:47.068Z,12.62
2022-12-31T05:50:47.067Z,12.54
2022-12-31T05:51:47.064Z,12.59
2022-12-31T05:52:47.782Z,12.64
2022-12-31T05:53:47.080Z,12.60
2022-12-31T05:54:47.084Z,12.57
2022-12-31T05:55:47.089Z,12.60
2022-12-31T05:56:47.051Z,12.65
2022-12-31T05:57:47.051Z,12.60
2022-12-31T05:58:47.066Z,12.67
2022-12-31T05:59:47.053Z,12.67
2022-12-31T06:00:47.070Z,12.62
2022-12-31T06:01:47.072Z,12.64
2022-12-31T06:02:47.190Z,12.59
2022-12-31T06:03:47.133Z,12.62
2022-12-31T06:04:47.064Z,12.64
2022-12-31T06:05:47.075Z,12.64
2022-12-31T06:06:47.082Z,12.62
2022-12-31T06:07:47.052Z,12.74
2022-12-31T06:08:47.044Z,12.75
2022-12-31T06:09:47.036Z,12.78
2022-12-31T06:10:47.037Z,12.79
2022-12-31T06:11:47.057Z,12.77
2022-12-31T06:12:47.033Z,12.86
2022-12-31T06:13:47.037Z,12.87
2022-12-31T06:14:47.053Z,12.82
2022-12-31T06:15:47.068Z,12.83
2022-12-31T06:16:47.047Z,12.85
2022-12-31T06:17:47.038Z,12.86
2022-12-31T06:18:47.021Z,12.83
2022-12-31T06:19:47.040Z,12.92
2022-12-31T06:20:47.028Z,12.92
2022-12-31T06:21:47.043Z,12.95
2022-12-31T06:22:47.027Z,12.90
2022-12-31T06:23:47.027Z,12.95
2022-12-31T06:24:47.013Z,13.01
2022-12-31T06:25:47.016Z,13.08
2022-12-31T06:26:47.027Z,13.10
2022-12-31T06:27:47.032Z,13.17
2022-12-31T06:28:47.030Z,13.19
2022-12-31T06:29:47.016Z,13.17
2022-12-31T06:30:47.036Z,13.28
2022-12-31T06:31:47.030Z,13.28
2022-12-31T06:32:47.037Z,13.30
2022-12-31T06:33:47.026Z,13.38
2022-12-31T06:34:47.013Z,13.33
2022-12-31T06:35:47.013Z,13.33
2022-12-31T06:36:47.008Z,13.30
2022-12-31T06:37:47.004Z,13.32
2022-12-31T06:38:47.026Z,13.38
2022-12-31T06:39:47.010Z,13.41
2022-12-31T06:40:47.005Z,13.33
2022-12-31T06:41:47.007Z,13.38
2022-12-31T06:42:47.015Z,13.44
2022-12-31T06:43:47.006Z,13.36
2022-12-31T06:44:46.987Z,13.48
2022-12-31T06:45:46.990Z,13.42
2022-12-31T06:46:47.024Z,13.51
2022-12-31T06:47:46.994Z,13.55
2022-12-31T06:48:47.005Z,13.62
2022-12-31T06:49:46.987Z,13.66
2022-12-31T06:50:46.994Z,13.70
2022-12-31T06:51:46.977Z,13.69
2022-12-31T06:52:46.985Z,13.78
2022-12-31T06:53:46.987Z,13.85
2022-12-31T06:54:46.993Z,13.82
2022-12-31T06:55:46.993Z,13.82
2022-12-31T06:56:46.997Z,13.82
2022-12-31T06:57:47.003Z,13.77
2022-12-31T06:58:46.988Z,13.79
2022-12-31T06:59:46.973Z,13.85
2022-12-31T07:00:55.177Z,13.88
2022-12-31T07:01:47.050Z,14.00
2022-12-31T07:02:47.022Z,14.03
2022-12-31T07:03:46.975Z,14.03
2022-12-31T07:04:46.995Z,14.15
2022-12-31T07:05:46.975Z,14.10
2022-12-31T07:06:46.971Z,14.17
2022-12-31T07:07:46.964Z,14.25
2022-12-31T07:08:46.977Z,14.20
2022-12-31T07:09:46.975Z,14.25
2022-12-31T07:10:47.007Z,14.27
2022-12-31T07:11:47.659Z,14.29
2022-12-31T07:12:46.970Z,14.36
2022-12-31T07:13:46.950Z,14.43
2022-12-31T07:14:46.966Z,14.42
2022-12-31T07:15:46.986Z,14.42
2022-12-31T07:16:46.966Z,14.47
2022-12-31T07:17:46.953Z,14.47
2022-12-31T07:18:46.980Z,14.60
2022-12-31T07:19:49.015Z,14.61
2022-12-31T07:20:46.958Z,14.70
2022-12-31T07:21:46.988Z,14.73
2022-12-31T07:22:46.958Z,14.69
2022-12-31T07:23:46.973Z,14.78
2022-12-31T07:24:46.940Z,14.88
2022-12-31T07:25:46.951Z,14.86
2022-12-31T07:26:52.635Z,14.81
2022-12-31T07:27:47.011Z,14.92
2022-12-31T07:28:48.098Z,14.95
2022-12-31T07:29:47.007Z,15.01
2022-12-31T07:30:46.968Z,14.99
2022-12-31T07:31:46.990Z,14.98
2022-12-31T07:32:46.956Z,14.94
2022-12-31T07:33:46.945Z,15.03
2022-12-31T07:34:46.953Z,14.96
2022-12-31T07:35:46.938Z,15.06
2022-12-31T07:36:46.987Z,15.13
2022-12-31T07:37:46.971Z,15.16
2022-12-31T07:38:46.936Z,15.11
2022-12-31T07:39:46.945Z,15.16
2022-12-31T07:40:46.941Z,15.13
2022-12-31T07:41:47.207Z,15.14
2022-12-31T07:42:49.079Z,15.29
2022-12-31T07:43:47.027Z,15.27
2022-12-31T07:44:46.943Z,15.23
2022-12-31T07:45:46.957Z,15.21
2022-12-31T07:46:46.999Z,15.29
2022-12-31T07:47:46.950Z,15.23
2022-12-31T07:48:47.065Z,15.39
2022-12-31T07:49:46.954Z,15.31
2022-12-31T07:50:46.933Z,15.32
2022-12-31T07:51:46.926Z,15.35
2022-12-31T07:52:46.939Z,15.32
2022-12-31T07:53:46.936Z,15.38
2022-12-31T07:54:46.957Z,15.35
2022-12-31T07:55:46.927Z,15.41
2022-12-31T07:56:46.942Z,15.35
2022-12-31T07:57:46.940Z,15.38
2022-12-31T07:58:46.924Z,15.34
2022-12-31T07:59:46.947Z,15.39
2022-12-31T08:00:46.970Z,15.39
2022-12-31T08:01:47.081Z,15.43
2022-12-31T08:02:46.968Z,15.44
2022-12-31T08:03:46.915Z,15.39
2022-12-31T08:04:46.958Z,15.53
2022-12-31T08:05:46.954Z,15.51
2022-12-31T08:06:46.915Z,15.49
2022-12-31T08:07:46.935Z,15.60
2022-12-31T08:08:46.917Z,15.53
2022-12-31T08:09:46.917Z,15.50
2022-12-31T08:10:46.935Z,15.54
2022-12-31T08:11:46.936Z,15.57
2022-12-31T08:12:46.926Z,15.53
2022-12-31T08:13:46.919Z,15.49
2022-12-31T08:14:46.935Z,15.56
2022-12-31T08:15:46.924Z,15.53
2022-12-31T08:16:46.955Z,15.57
2022-12-31T08:17:46.940Z,15.53
2022-12-31T08:18:46.944Z,15.65
2022-12-31T08:19:46.914Z,15.64
2022-12-31T08:20:46.919Z,15.68
2022-12-31T08:21:46.923Z,15.69
2022-12-31T08:22:46.966Z,15.69
2022-12-31T08:23:46.909Z,15.68
2022-12-31T08:24:46.928Z,15.69
2022-12-31T08:25:46.921Z,15.64
2022-12-31T08:26:52.580Z,15.72
2022-12-31T08:27:46.921Z,15.72
2022-12-31T08:28:46.938Z,15.80
2022-12-31T08:29:46.918Z,15.83
2022-12-31T08:30:46.915Z,15.87
2022-12-31T08:31:46.978Z,15.76
2022-12-31T08:32:46.922Z,15.86
2022-12-31T08:33:46.915Z,15.89
2022-12-31T08:34:46.930Z,15.87
2022-12-31T08:35:46.904Z,15.90
2022-12-31T08:36:46.918Z,15.92
2022-12-31T08:37:46.917Z,15.89
2022-12-31T08:38:46.907Z,15.84
2022-12-31T08:39:46.931Z,15.93
2022-12-31T08:40:46.928Z,16.01
2022-12-31T08:41:46.928Z,16.07
2022-12-31T08:42:46.903Z,16.01
2022-12-31T08:43:46.906Z,16.02
2022-12-31T08:44:46.932Z,16.08
2022-12-31T08:45:46.986Z,16.07
2022-12-31T08:46:46.928Z,16.00
2022-12-31T08:47:46.904Z,16.07
2022-12-31T08:48:46.908Z,16.07
2022-12-31T08:49:46.915Z,16.09
2022-12-31T08:50:46.917Z,16.14
2022-12-31T08:51:46.933Z,16.17
2022-12-31T08:52:46.948Z,16.34
2022-12-31T08:53:46.917Z,16.41
2022-12-31T08:54:46.908Z,16.39
2022-12-31T08:55:46.904Z,16.50
2022-12-31T08:56:50.512Z,16.49
2022-12-31T08:57:46.933Z,16.63
2022-12-31T08:58:46.923Z,16.68
2022-12-31T08:59:46.907Z,16.70
2022-12-31T09:00:46.935Z,16.73
2022-12-31T09:01:47.039Z,16.68
2022-12-31T09:02:48.426Z,16.66
2022-12-31T09:03:47.081Z,16.73
2022-12-31T09:04:46.911Z,16.79
2022-12-31T09:05:46.951Z,16.76
2022-12-31T09:06:46.932Z,16.58
2022-12-31T09:07:46.954Z,16.57
2022-12-31T09:08:46.915Z,16.63
2022-12-31T09:09:46.911Z,16.64
2022-12-31T09:10:46.931Z,16.63
2022-12-31T09:11:46.917Z,16.60
2022-12-31T09:12:46.933Z,16.58
2022-12-31T09:13:46.927Z,16.58
2022-12-31T09:18:56.456Z,16.60
2022-12-31T09:19:55.762Z,16.68
2022-12-31T09:20:55.758Z,16.85
2022-12-31T09:21:55.790Z,17.01
2022-12-31T09:22:55.807Z,17.12
2022-12-31T09:23:55.791Z,17.16
2022-12-31T09:24:55.760Z,17.23
2022-12-31T09:25:55.779Z,17.46
2022-12-31T09:26:55.775Z,17.44
2022-12-31T09:27:55.790Z,17.55
2022-12-31T09:28:55.770Z,17.82
2022-12-31T09:29:55.765Z,17.72
2022-12-31T09:30:55.812Z,17.70
2022-12-31T09:31:55.845Z,17.92
2022-12-31T09:33:00.758Z,18.12
2022-12-31T09:33:55.774Z,18.17
2022-12-31T09:34:55.784Z,18.29
2022-12-31T09:35:55.784Z,18.20
2022-12-31T09:36:55.797Z,18.21
2022-12-31T09:37:55.781Z,17.95
2022-12-31T09:38:55.789Z,17.99
2022-12-31T09:39:55.767Z,18.05
2022-12-31T09:40:55.806Z,18.35
2022-12-31T09:41:55.775Z,18.45
2022-12-31T09:42:55.784Z,18.62
2022-12-31T09:44:00.687Z,18.39
2022-12-31T09:44:55.788Z,18.18
2022-12-31T09:45:55.823Z,18.07
2022-12-31T09:46:55.783Z,17.95
2022-12-31T09:47:55.780Z,17.89
2022-12-31T09:48:55.787Z,18.10
2022-12-31T09:49:55.771Z,18.23
2022-12-31T09:50:55.802Z,18.20
2022-12-31T09:51:55.792Z,18.12
2022-12-31T09:52:55.793Z,18.21
2022-12-31T09:53:55.801Z,18.41
2022-12-31T09:54:55.803Z,18.41
2022-12-31T09:55:55.813Z,18.42
2022-12-31T09:56:59.137Z,18.57
2022-12-31T09:57:55.796Z,18.66
2022-12-31T09:58:55.805Z,18.75
2022-12-31T09:59:55.803Z,18.50
2022-12-31T10:00:55.851Z,18.58
2022-12-31T10:01:55.884Z,18.62
2022-12-31T10:02:55.840Z,18.39
2022-12-31T10:03:55.814Z,18.30
2022-12-31T10:04:55.797Z,18.35
2022-12-31T10:05:55.795Z,18.17
2022-12-31T10:06:55.816Z,18.00
2022-12-31T10:07:55.798Z,18.03
2022-12-31T10:08:55.804Z,17.93
2022-12-31T10:09:55.819Z,17.87
2022-12-31T10:10:55.805Z,17.93
2022-12-31T10:11:55.829Z,17.86
2022-12-31T10:12:55.805Z,17.95
2022-12-31T10:13:55.817Z,17.96
2022-12-31T10:14:55.810Z,18.10
2022-12-31T10:15:55.831Z,18.15
2022-12-31T10:16:55.865Z,18.27
2022-12-31T10:17:55.823Z,18.35
2022-12-31T10:18:55.818Z,18.54
2022-12-31T10:19:55.842Z,18.47
2022-12-31T10:20:55.821Z,18.50
2022-12-31T10:21:55.831Z,18.50
2022-12-31T10:22:55.846Z,18.66
2022-12-31T10:23:55.835Z,18.76
2022-12-31T10:24:56.348Z,19.36
2022-12-31T10:25:55.846Z,19.14
2022-12-31T10:26:55.859Z,18.92
2022-12-31T10:27:55.827Z,18.90
2022-12-31T10:28:55.838Z,18.98
2022-12-31T10:29:55.844Z,19.00
2022-12-31T10:30:55.868Z,18.94
2022-12-31T10:31:55.861Z,18.99
2022-12-31T10:32:55.857Z,18.98
2022-12-31T10:33:55.847Z,18.81
2022-12-31T10:34:55.872Z,18.88
2022-12-31T10:35:55.848Z,18.80
2022-12-31T10:36:55.880Z,18.72
2022-12-31T10:37:55.866Z,18.65
2022-12-31T10:38:55.885Z,18.54
2022-12-31T10:39:55.847Z,18.66
2022-12-31T10:40:55.873Z,18.60
2022-12-31T10:41:55.898Z,18.57
2022-12-31T10:42:55.873Z,18.60
2022-12-31T10:43:55.858Z,18.54
2022-12-31T10:44:55.876Z,18.51
2022-12-31T10:45:55.875Z,18.50
2022-12-31T10:46:55.865Z,18.42
2022-12-31T10:47:55.896Z,18.42
2022-12-31T10:48:55.916Z,18.48
2022-12-31T10:49:55.870Z,18.39
2022-12-31T10:50:55.867Z,18.42
2022-12-31T10:51:55.883Z,18.37
2022-12-31T10:52:55.880Z,18.37
2022-12-31T10:53:55.895Z,18.32
2022-12-31T10:54:55.889Z,18.33
2022-12-31T10:55:55.876Z,18.36
2022-12-31T10:56:55.875Z,18.33
2022-12-31T10:58:01.883Z,18.30
2022-12-31T10:58:55.895Z,18.25
2022-12-31T10:59:55.887Z,18.32
2022-12-31T11:00:56.098Z,18.26
2022-12-31T11:01:55.952Z,18.21
2022-12-31T11:02:55.961Z,18.30
2022-12-31T11:03:55.906Z,18.33
2022-12-31T11:04:55.896Z,18.39
2022-12-31T11:05:55.895Z,18.39
2022-12-31T11:07:03.433Z,18.36
2022-12-31T11:07:55.905Z,18.36
2022-12-31T11:12:33.644Z,18.33
2022-12-31T11:13:34.195Z,18.37
2022-12-31T11:16:13.528Z,18.39
2022-12-31T11:17:14.112Z,18.41
2022-12-31T11:18:15.143Z,18.44
2022-12-31T11:19:05.928Z,18.36
2022-12-31T11:20:13.477Z,18.35
2022-12-31T11:21:14.223Z,18.27
2022-12-31T11:22:13.504Z,18.33
2022-12-31T11:23:05.937Z,18.27
2022-12-31T11:24:05.928Z,18.29
2022-12-31T11:25:05.932Z,18.32
2022-12-31T11:26:05.926Z,18.30
2022-12-31T11:27:05.947Z,18.23
2022-12-31T11:28:05.940Z,18.32
2022-12-31T11:29:05.921Z,18.33
2022-12-31T11:30:05.924Z,18.18
2022-12-31T11:31:05.986Z,18.20
2022-12-31T11:32:05.953Z,18.30
2022-12-31T11:33:16.782Z,18.18
2022-12-31T11:35:45.368Z,18.25
2022-12-31T11:36:45.436Z,18.20
2022-12-31T11:37:45.362Z,18.30
2022-12-31T11:38:45.941Z,18.30
2022-12-31T11:39:45.358Z,18.32
2022-12-31T11:40:53.563Z,18.35
2022-12-31T11:41:45.378Z,18.47
2022-12-31T11:42:45.354Z,18.39
2022-12-31T11:43:55.586Z,18.36
2022-12-31T11:44:53.634Z,18.41
2022-12-31T11:45:50.406Z,18.39
2022-12-31T11:46:45.395Z,18.36
2022-12-31T11:48:28.037Z,18.37
2022-12-31T11:48:45.362Z,18.44
2022-12-31T11:49:45.372Z,18.47
2022-12-31T11:50:45.362Z,18.37
2022-12-31T11:51:50.197Z,18.47
2022-12-31T11:52:45.373Z,18.58
2022-12-31T11:53:45.399Z,18.67
2022-12-31T11:54:45.373Z,18.70
2022-12-31T11:55:45.359Z,18.75
2022-12-31T11:56:45.363Z,18.72
2022-12-31T11:57:45.368Z,18.87
2022-12-31T11:58:45.392Z,18.88
2022-12-31T11:59:45.388Z,18.91
2022-12-31T12:00:45.379Z,18.81
2022-12-31T12:01:45.415Z,18.84
2022-12-31T12:02:45.438Z,18.90
2022-12-31T12:03:45.401Z,18.81
2022-12-31T12:04:45.398Z,18.92
2022-12-31T12:05:45.407Z,18.91
2022-12-31T12:06:45.404Z,18.90
2022-12-31T12:07:45.394Z,18.88
2022-12-31T12:08:45.384Z,18.84
2022-12-31T12:09:45.382Z,18.92
2022-12-31T12:10:45.396Z,18.90
2022-12-31T12:11:45.395Z,18.92
2022-12-31T12:12:45.391Z,18.85
2022-12-31T12:13:45.425Z,18.91
2022-12-31T12:14:45.408Z,18.90
2022-12-31T12:15:45.405Z,18.90
2022-12-31T12:16:45.449Z,18.81
2022-12-31T12:17:45.407Z,18.87
2022-12-31T12:18:45.414Z,18.84
2022-12-31T12:19:45.417Z,18.90
2022-12-31T12:20:45.427Z,18.91
2022-12-31T12:21:45.401Z,18.81
2022-12-31T12:22:49.464Z,18.80
2022-12-31T12:23:45.571Z,18.72
2022-12-31T12:24:46.070Z,18.66
2022-12-31T12:32:45.355Z,18.66
2022-12-31T12:33:45.333Z,18.70
2022-12-31T12:34:49.582Z,18.72
2022-12-31T12:35:45.340Z,18.69
2022-12-31T12:36:45.348Z,18.58
2022-12-31T12:37:45.365Z,18.73
2022-12-31T12:38:45.349Z,18.73
2022-12-31T12:39:45.350Z,18.69
2022-12-31T12:40:45.360Z,18.67
2022-12-31T12:41:45.363Z,18.73
2022-12-31T12:42:45.344Z,18.67
2022-12-31T12:43:45.356Z,18.70
2022-12-31T12:44:45.353Z,18.66
2022-12-31T12:45:49.172Z,18.72
2022-12-31T12:46:48.288Z,18.57
2022-12-31T12:47:45.350Z,18.65
2022-12-31T12:48:45.375Z,18.63
2022-12-31T12:49:45.358Z,18.55
2022-12-31T12:50:45.371Z,18.73
2022-12-31T12:51:45.394Z,18.72
2022-12-31T12:52:45.370Z,18.66
2022-12-31T12:53:45.378Z,18.73
2022-12-31T12:54:45.373Z,18.66
2022-12-31T12:55:45.375Z,18.70
2022-12-31T12:56:45.379Z,18.65
2022-12-31T12:57:45.380Z,18.75
2022-12-31T12:58:45.398Z,18.66
2022-12-31T12:59:45.392Z,18.66
2022-12-31T13:00:45.423Z,18.73
2022-12-31T13:01:45.545Z,18.73
2022-12-31T13:02:45.437Z,18.81
2022-12-31T13:04:14.721Z,18.73
2022-12-31T13:04:45.406Z,18.70
2022-12-31T13:05:45.403Z,18.80
2022-12-31T13:06:45.389Z,18.76
2022-12-31T13:07:45.508Z,18.80
2022-12-31T13:08:45.394Z,18.76
2022-12-31T13:11:17.470Z,18.76
2022-12-31T13:12:17.449Z,18.76
2022-12-31T13:13:25.386Z,18.84
2022-12-31T13:14:17.493Z,18.88